sensor_id;sensor_type;location;lat;lon;timestamp;temperature;humidity
39453;DHT22;25154;-33.684;151.102;2022-09-21T00:00:28;19.90;99.90
39453;DHT22;25154;-33.684;151.102;2022-09-21T00:05:33;19.90;99.90
39453;DHT22;25154;-33.684;151.102;2022-09-21T00:10:38;20.00;99.90
39453;DHT22;25154;-33.684;151.102;2022-09-21T00:15:42;19.80;99.90
39453;DHT22;25154;-33.684;151.102;2022-09-21T00:20:45;19.80;99.90
39453;DHT22;25154;-33.684;151.102;2022-09-21T00:25:48;19.70;99.90
39453;DHT22;25154;-33.684;151.102;2022-09-21T00:30:51;19.90;99.90
39453;DHT22;25154;-33.684;151.102;2022-09-21T00:35:54;20.20;99.90
39453;DHT22;25154;-33.684;151.102;2022-09-21T00:40:57;20.40;99.90
39453;DHT22;25154;-33.684;151.102;2022-09-21T00:46:13;20.40;99.90
39453;DHT22;25154;-33.684;151.102;2022-09-21T00:51:16;20.40;99.90
39453;DHT22;25154;-33.684;151.102;2022-09-21T00:56:19;20.70;99.90
39453;DHT22;25154;-33.684;151.102;2022-09-21T01:01:22;20.80;99.90
39453;DHT22;25154;-33.684;151.102;2022-09-21T01:06:25;21.00;99.90
39453;DHT22;25154;-33.684;151.102;2022-09-21T01:17:15;21.00;99.90
39453;DHT22;25154;-33.684;151.102;2022-09-21T01:38:20;21.20;99.90
39453;DHT22;25154;-33.684;151.102;2022-09-21T01:43:39;21.10;99.90
39453;DHT22;25154;-33.684;151.102;2022-09-21T01:48:47;20.80;99.90
39453;DHT22;25154;-33.684;151.102;2022-09-21T01:54:17;20.60;99.90
39453;DHT22;25154;-33.684;151.102;2022-09-21T01:59:25;20.50;99.90
39453;DHT22;25154;-33.684;151.102;2022-09-21T02:04:29;20.50;99.90
39453;DHT22;25154;-33.684;151.102;2022-09-21T02:09:33;20.90;99.90
39453;DHT22;25154;-33.684;151.102;2022-09-21T02:14:39;21.00;99.90
39453;DHT22;25154;-33.684;151.102;2022-09-21T02:20:08;21.30;99.90
39453;DHT22;25154;-33.684;151.102;2022-09-21T02:25:24;21.40;99.90
39453;DHT22;25154;-33.684;151.102;2022-09-21T02:30:31;21.30;99.90
39453;DHT22;25154;-33.684;151.102;2022-09-21T02:35:49;21.10;99.90
39453;DHT22;25154;-33.684;151.102;2022-09-21T02:41:09;21.10;99.90
39453;DHT22;25154;-33.684;151.102;2022-09-21T02:46:31;21.30;99.90
39453;DHT22;25154;-33.684;151.102;2022-09-21T02:51:52;21.20;99.90
39453;DHT22;25154;-33.684;151.102;2022-09-21T02:56:59;21.00;99.90
39453;DHT22;25154;-33.684;151.102;2022-09-21T03:02:02;20.90;99.90
39453;DHT22;25154;-33.684;151.102;2022-09-21T03:07:08;21.00;99.90
39453;DHT22;25154;-33.684;151.102;2022-09-21T03:12:11;21.00;99.90
39453;DHT22;25154;-33.684;151.102;2022-09-21T03:17:14;20.90;99.90
39453;DHT22;25154;-33.684;151.102;2022-09-21T03:22:17;20.90;99.90
39453;DHT22;25154;-33.684;151.102;2022-09-21T03:27:21;20.90;99.90
39453;DHT22;25154;-33.684;151.102;2022-09-21T03:32:23;20.90;99.90
39453;DHT22;25154;-33.684;151.102;2022-09-21T03:37:27;20.70;99.90
39453;DHT22;25154;-33.684;151.102;2022-09-21T03:42:31;20.60;99.90
39453;DHT22;25154;-33.684;151.102;2022-09-21T03:47:35;20.30;99.90
39453;DHT22;25154;-33.684;151.102;2022-09-21T03:52:39;20.10;99.90
39453;DHT22;25154;-33.684;151.102;2022-09-21T03:57:42;19.90;99.90
39453;DHT22;25154;-33.684;151.102;2022-09-21T04:02:45;19.90;99.90
39453;DHT22;25154;-33.684;151.102;2022-09-21T04:07:47;19.60;99.90
39453;DHT22;25154;-33.684;151.102;2022-09-21T04:12:51;19.50;99.90
39453;DHT22;25154;-33.684;151.102;2022-09-21T04:17:54;19.40;99.90
39453;DHT22;25154;-33.684;151.102;2022-09-21T04:22:57;19.60;99.90
39453;DHT22;25154;-33.684;151.102;2022-09-21T04:28:00;19.60;99.90
39453;DHT22;25154;-33.684;151.102;2022-09-21T04:33:03;19.60;99.90
39453;DHT22;25154;-33.684;151.102;2022-09-21T04:38:06;19.60;99.90
39453;DHT22;25154;-33.684;151.102;2022-09-21T04:43:09;20.50;99.90
39453;DHT22;25154;-33.684;151.102;2022-09-21T04:48:11;19.40;99.90
39453;DHT22;25154;-33.684;151.102;2022-09-21T04:53:14;19.30;99.90
39453;DHT22;25154;-33.684;151.102;2022-09-21T04:58:17;19.20;99.90
39453;DHT22;25154;-33.684;151.102;2022-09-21T05:03:20;19.10;99.90
39453;DHT22;25154;-33.684;151.102;2022-09-21T05:08:24;18.90;99.90
39453;DHT22;25154;-33.684;151.102;2022-09-21T05:13:46;18.80;99.90
39453;DHT22;25154;-33.684;151.102;2022-09-21T05:18:52;18.70;99.90
39453;DHT22;25154;-33.684;151.102;2022-09-21T05:23:58;18.50;99.90
39453;DHT22;25154;-33.684;151.102;2022-09-21T05:29:01;18.40;99.90
39453;DHT22;25154;-33.684;151.102;2022-09-21T05:39:10;18.30;99.90
39453;DHT22;25154;-33.684;151.102;2022-09-21T05:44:13;18.20;99.90
39453;DHT22;25154;-33.684;151.102;2022-09-21T05:49:17;18.10;99.90
39453;DHT22;25154;-33.684;151.102;2022-09-21T05:54:43;18.10;99.90
39453;DHT22;25154;-33.684;151.102;2022-09-21T06:00:04;18.00;99.90
39453;DHT22;25154;-33.684;151.102;2022-09-21T06:05:13;17.90;99.90
39453;DHT22;25154;-33.684;151.102;2022-09-21T06:10:16;17.80;99.90
39453;DHT22;25154;-33.684;151.102;2022-09-21T06:15:19;17.90;99.90
39453;DHT22;25154;-33.684;151.102;2022-09-21T06:20:22;17.90;99.90
39453;DHT22;25154;-33.684;151.102;2022-09-21T06:25:27;17.80;99.90
39453;DHT22;25154;-33.684;151.102;2022-09-21T06:30:33;17.70;99.90
39453;DHT22;25154;-33.684;151.102;2022-09-21T06:35:36;17.80;99.90
39453;DHT22;25154;-33.684;151.102;2022-09-21T06:40:41;17.70;99.90
39453;DHT22;25154;-33.684;151.102;2022-09-21T06:45:51;17.70;99.90
39453;DHT22;25154;-33.684;151.102;2022-09-21T06:51:01;17.60;99.90
39453;DHT22;25154;-33.684;151.102;2022-09-21T06:56:08;17.60;99.90
39453;DHT22;25154;-33.684;151.102;2022-09-21T07:01:13;17.50;99.90
39453;DHT22;25154;-33.684;151.102;2022-09-21T07:06:16;17.50;99.90
39453;DHT22;25154;-33.684;151.102;2022-09-21T07:11:19;17.50;99.90
39453;DHT22;25154;-33.684;151.102;2022-09-21T07:16:24;17.40;99.90
39453;DHT22;25154;-33.684;151.102;2022-09-21T07:21:28;17.40;99.90
39453;DHT22;25154;-33.684;151.102;2022-09-21T07:26:31;17.30;99.90
39453;DHT22;25154;-33.684;151.102;2022-09-21T07:31:35;17.20;99.90
39453;DHT22;25154;-33.684;151.102;2022-09-21T07:36:37;17.20;99.90
39453;DHT22;25154;-33.684;151.102;2022-09-21T07:41:40;17.10;99.90
39453;DHT22;25154;-33.684;151.102;2022-09-21T07:46:43;16.90;99.90
39453;DHT22;25154;-33.684;151.102;2022-09-21T07:51:47;16.80;99.90
39453;DHT22;25154;-33.684;151.102;2022-09-21T07:56:50;16.60;99.90
39453;DHT22;25154;-33.684;151.102;2022-09-21T08:02:12;16.50;99.90
39453;DHT22;25154;-33.684;151.102;2022-09-21T08:07:14;16.10;99.90
39453;DHT22;25154;-33.684;151.102;2022-09-21T08:17:28;16.30;99.90
39453;DHT22;25154;-33.684;151.102;2022-09-21T08:22:30;16.50;99.90
39453;DHT22;25154;-33.684;151.102;2022-09-21T08:27:33;16.20;99.90
39453;DHT22;25154;-33.684;151.102;2022-09-21T08:32:36;16.20;99.90
39453;DHT22;25154;-33.684;151.102;2022-09-21T08:37:38;16.10;99.90
39453;DHT22;25154;-33.684;151.102;2022-09-21T08:43:07;16.10;99.90
39453;DHT22;25154;-33.684;151.102;2022-09-21T08:48:25;16.00;99.90
39453;DHT22;25154;-33.684;151.102;2022-09-21T08:53:39;16.00;99.90
39453;DHT22;25154;-33.684;151.102;2022-09-21T08:58:43;15.90;99.90
39453;DHT22;25154;-33.684;151.102;2022-09-21T09:20:05;15.60;99.90
39453;DHT22;25154;-33.684;151.102;2022-09-21T09:25:19;15.60;99.90
39453;DHT22;25154;-33.684;151.102;2022-09-21T09:30:28;15.50;99.90
39453;DHT22;25154;-33.684;151.102;2022-09-21T09:40:54;15.30;99.90
39453;DHT22;25154;-33.684;151.102;2022-09-21T09:46:29;15.20;99.90
39453;DHT22;25154;-33.684;151.102;2022-09-21T09:51:34;15.20;99.90
39453;DHT22;25154;-33.684;151.102;2022-09-21T09:56:39;15.20;99.90
39453;DHT22;25154;-33.684;151.102;2022-09-21T10:01:44;15.10;99.90
39453;DHT22;25154;-33.684;151.102;2022-09-21T10:06:48;15.10;99.90
39453;DHT22;25154;-33.684;151.102;2022-09-21T10:11:52;15.00;99.90
39453;DHT22;25154;-33.684;151.102;2022-09-21T10:17:03;15.00;99.90
39453;DHT22;25154;-33.684;151.102;2022-09-21T10:22:12;15.20;99.90
39453;DHT22;25154;-33.684;151.102;2022-09-21T10:27:25;15.00;99.90
39453;DHT22;25154;-33.684;151.102;2022-09-21T10:32:30;15.00;99.90
39453;DHT22;25154;-33.684;151.102;2022-09-21T10:37:35;15.00;99.90
39453;DHT22;25154;-33.684;151.102;2022-09-21T10:42:42;14.90;99.90
39453;DHT22;25154;-33.684;151.102;2022-09-21T10:47:50;14.90;99.90
39453;DHT22;25154;-33.684;151.102;2022-09-21T10:53:26;14.90;99.90
39453;DHT22;25154;-33.684;151.102;2022-09-21T10:58:31;14.90;99.90
39453;DHT22;25154;-33.684;151.102;2022-09-21T11:09:08;14.90;99.90
39453;DHT22;25154;-33.684;151.102;2022-09-21T11:14:44;15.00;99.90
39453;DHT22;25154;-33.684;151.102;2022-09-21T11:20:38;15.10;99.90
39453;DHT22;25154;-33.684;151.102;2022-09-21T11:30:30;15.10;99.90
39453;DHT22;25154;-33.684;151.102;2022-09-21T11:35:46;15.10;99.90
39453;DHT22;25154;-33.684;151.102;2022-09-21T11:58:03;15.10;99.90
39453;DHT22;25154;-33.684;151.102;2022-09-21T12:25:01;15.10;99.90
39453;DHT22;25154;-33.684;151.102;2022-09-21T12:30:23;15.20;99.90
39453;DHT22;25154;-33.684;151.102;2022-09-21T12:35:34;15.20;99.90
39453;DHT22;25154;-33.684;151.102;2022-09-21T12:41:49;15.20;99.90
39453;DHT22;25154;-33.684;151.102;2022-09-21T12:46:57;15.20;99.90
39453;DHT22;25154;-33.684;151.102;2022-09-21T12:52:18;15.20;99.90
39453;DHT22;25154;-33.684;151.102;2022-09-21T12:57:49;15.10;99.90
39453;DHT22;25154;-33.684;151.102;2022-09-21T13:03:10;15.10;99.90
39453;DHT22;25154;-33.684;151.102;2022-09-21T13:08:17;15.00;99.90
39453;DHT22;25154;-33.684;151.102;2022-09-21T13:13:36;15.10;99.90
39453;DHT22;25154;-33.684;151.102;2022-09-21T13:18:39;15.00;99.90
39453;DHT22;25154;-33.684;151.102;2022-09-21T13:23:43;15.00;99.90
39453;DHT22;25154;-33.684;151.102;2022-09-21T13:39:17;14.90;99.90
39453;DHT22;25154;-33.684;151.102;2022-09-21T13:44:40;14.90;99.90
39453;DHT22;25154;-33.684;151.102;2022-09-21T13:49:46;14.90;99.90
39453;DHT22;25154;-33.684;151.102;2022-09-21T13:54:59;14.80;99.90
39453;DHT22;25154;-33.684;151.102;2022-09-21T14:05:49;14.90;99.90
39453;DHT22;25154;-33.684;151.102;2022-09-21T14:11:09;14.80;99.90
39453;DHT22;25154;-33.684;151.102;2022-09-21T14:21:34;14.70;99.90
39453;DHT22;25154;-33.684;151.102;2022-09-21T14:31:43;14.70;99.90
39453;DHT22;25154;-33.684;151.102;2022-09-21T14:36:49;14.70;99.90
39453;DHT22;25154;-33.684;151.102;2022-09-21T14:41:55;14.80;99.90
39453;DHT22;25154;-33.684;151.102;2022-09-21T14:47:08;14.80;99.90
39453;DHT22;25154;-33.684;151.102;2022-09-21T15:09:02;14.80;99.90
39453;DHT22;25154;-33.684;151.102;2022-09-21T15:19:35;14.80;99.90
39453;DHT22;25154;-33.684;151.102;2022-09-21T15:24:51;14.90;99.90
39453;DHT22;25154;-33.684;151.102;2022-09-21T15:29:55;14.80;99.90
39453;DHT22;25154;-33.684;151.102;2022-09-21T15:35:03;14.90;99.90
39453;DHT22;25154;-33.684;151.102;2022-09-21T15:40:19;14.90;99.90
39453;DHT22;25154;-33.684;151.102;2022-09-21T15:45:22;14.90;99.90
39453;DHT22;25154;-33.684;151.102;2022-09-21T15:50:26;14.80;99.90
39453;DHT22;25154;-33.684;151.102;2022-09-21T15:55:30;14.80;99.90
39453;DHT22;25154;-33.684;151.102;2022-09-21T16:00:34;14.80;99.90
39453;DHT22;25154;-33.684;151.102;2022-09-21T16:05:44;14.80;99.90
39453;DHT22;25154;-33.684;151.102;2022-09-21T16:10:47;14.70;99.90
39453;DHT22;25154;-33.684;151.102;2022-09-21T16:16:21;14.10;99.90
39453;DHT22;25154;-33.684;151.102;2022-09-21T16:21:25;14.50;99.90
39453;DHT22;25154;-33.684;151.102;2022-09-21T16:26:33;14.50;99.90
39453;DHT22;25154;-33.684;151.102;2022-09-21T16:31:36;14.40;99.90
39453;DHT22;25154;-33.684;151.102;2022-09-21T16:36:40;14.30;99.90
39453;DHT22;25154;-33.684;151.102;2022-09-21T16:42:11;14.30;99.90
39453;DHT22;25154;-33.684;151.102;2022-09-21T16:47:21;14.30;99.90
39453;DHT22;25154;-33.684;151.102;2022-09-21T16:52:27;14.30;99.90
39453;DHT22;25154;-33.684;151.102;2022-09-21T16:57:29;14.30;99.90
39453;DHT22;25154;-33.684;151.102;2022-09-21T17:02:33;14.30;99.90
39453;DHT22;25154;-33.684;151.102;2022-09-21T17:07:35;14.30;99.90
39453;DHT22;25154;-33.684;151.102;2022-09-21T17:12:37;14.30;99.90
39453;DHT22;25154;-33.684;151.102;2022-09-21T17:17:40;14.40;99.90
39453;DHT22;25154;-33.684;151.102;2022-09-21T17:22:42;14.40;99.90
39453;DHT22;25154;-33.684;151.102;2022-09-21T17:27:45;14.40;99.90
39453;DHT22;25154;-33.684;151.102;2022-09-21T17:32:47;14.50;99.90
39453;DHT22;25154;-33.684;151.102;2022-09-21T17:37:53;14.60;99.90
39453;DHT22;25154;-33.684;151.102;2022-09-21T17:43:28;14.70;99.90
39453;DHT22;25154;-33.684;151.102;2022-09-21T17:48:23;14.80;99.90
39453;DHT22;25154;-33.684;151.102;2022-09-21T17:53:25;14.70;99.90
39453;DHT22;25154;-33.684;151.102;2022-09-21T17:58:55;14.70;99.90
39453;DHT22;25154;-33.684;151.102;2022-09-21T18:03:59;14.60;99.90
39453;DHT22;25154;-33.684;151.102;2022-09-21T18:09:02;14.60;99.90
39453;DHT22;25154;-33.684;151.102;2022-09-21T18:24:36;14.30;99.90
39453;DHT22;25154;-33.684;151.102;2022-09-21T18:29:39;14.20;99.90
39453;DHT22;25154;-33.684;151.102;2022-09-21T18:45:28;13.90;99.90
39453;DHT22;25154;-33.684;151.102;2022-09-21T18:55:40;13.70;99.90
39453;DHT22;25154;-33.684;151.102;2022-09-21T19:00:43;13.70;99.90
39453;DHT22;25154;-33.684;151.102;2022-09-21T19:27:37;13.90;99.90
39453;DHT22;25154;-33.684;151.102;2022-09-21T19:32:48;13.90;99.90
39453;DHT22;25154;-33.684;151.102;2022-09-21T19:37:54;14.00;99.90
39453;DHT22;25154;-33.684;151.102;2022-09-21T19:43:06;14.10;99.90
39453;DHT22;25154;-33.684;151.102;2022-09-21T19:48:15;14.20;99.90
39453;DHT22;25154;-33.684;151.102;2022-09-21T19:53:19;14.20;99.90
39453;DHT22;25154;-33.684;151.102;2022-09-21T19:58:40;14.30;99.90
39453;DHT22;25154;-33.684;151.102;2022-09-21T20:04:01;14.30;99.90
39453;DHT22;25154;-33.684;151.102;2022-09-21T20:09:19;14.40;99.90
39453;DHT22;25154;-33.684;151.102;2022-09-21T20:15:05;14.50;99.90
39453;DHT22;25154;-33.684;151.102;2022-09-21T20:20:23;14.50;99.90
39453;DHT22;25154;-33.684;151.102;2022-09-21T20:25:34;14.50;99.90
39453;DHT22;25154;-33.684;151.102;2022-09-21T20:30:37;14.50;99.90
39453;DHT22;25154;-33.684;151.102;2022-09-21T20:35:41;14.50;99.90
39453;DHT22;25154;-33.684;151.102;2022-09-21T20:40:44;14.50;99.90
39453;DHT22;25154;-33.684;151.102;2022-09-21T20:45:47;14.50;99.90
39453;DHT22;25154;-33.684;151.102;2022-09-21T20:50:54;14.40;99.90
39453;DHT22;25154;-33.684;151.102;2022-09-21T20:55:59;14.40;99.90
39453;DHT22;25154;-33.684;151.102;2022-09-21T21:01:06;14.50;99.90
39453;DHT22;25154;-33.684;151.102;2022-09-21T21:06:15;14.50;99.90
39453;DHT22;25154;-33.684;151.102;2022-09-21T21:11:19;14.50;99.90
39453;DHT22;25154;-33.684;151.102;2022-09-21T21:16:23;14.50;99.90
39453;DHT22;25154;-33.684;151.102;2022-09-21T21:21:28;14.50;99.90
39453;DHT22;25154;-33.684;151.102;2022-09-21T21:26:31;14.60;99.90
39453;DHT22;25154;-33.684;151.102;2022-09-21T21:31:34;14.60;99.90
39453;DHT22;25154;-33.684;151.102;2022-09-21T21:36:39;14.60;99.90
39453;DHT22;25154;-33.684;151.102;2022-09-21T21:41:41;14.70;99.90
39453;DHT22;25154;-33.684;151.102;2022-09-21T21:46:44;14.80;99.90
39453;DHT22;25154;-33.684;151.102;2022-09-21T21:51:47;14.90;99.90
39453;DHT22;25154;-33.684;151.102;2022-09-21T21:56:51;15.10;99.90
39453;DHT22;25154;-33.684;151.102;2022-09-21T22:01:58;15.40;99.90
39453;DHT22;25154;-33.684;151.102;2022-09-21T22:07:01;15.40;99.90
39453;DHT22;25154;-33.684;151.102;2022-09-21T22:12:03;14.20;99.90
39453;DHT22;25154;-33.684;151.102;2022-09-21T22:17:08;15.50;99.90
39453;DHT22;25154;-33.684;151.102;2022-09-21T22:22:11;15.50;99.90
39453;DHT22;25154;-33.684;151.102;2022-09-21T22:27:13;15.30;99.90
39453;DHT22;25154;-33.684;151.102;2022-09-21T22:32:16;15.30;99.90
39453;DHT22;25154;-33.684;151.102;2022-09-21T22:37:19;15.40;99.90
39453;DHT22;25154;-33.684;151.102;2022-09-21T22:42:22;15.70;99.90
39453;DHT22;25154;-33.684;151.102;2022-09-21T22:47:25;16.10;99.90
39453;DHT22;25154;-33.684;151.102;2022-09-21T22:52:27;16.20;99.90
39453;DHT22;25154;-33.684;151.102;2022-09-21T22:57:30;16.60;99.90
39453;DHT22;25154;-33.684;151.102;2022-09-21T23:02:33;17.10;99.90
39453;DHT22;25154;-33.684;151.102;2022-09-21T23:07:39;17.40;99.90
39453;DHT22;25154;-33.684;151.102;2022-09-21T23:12:41;17.70;99.90
39453;DHT22;25154;-33.684;151.102;2022-09-21T23:17:44;18.30;99.90
39453;DHT22;25154;-33.684;151.102;2022-09-21T23:22:47;18.40;99.90
39453;DHT22;25154;-33.684;151.102;2022-09-21T23:27:49;18.50;99.90
39453;DHT22;25154;-33.684;151.102;2022-09-21T23:32:52;18.40;99.90
39453;DHT22;25154;-33.684;151.102;2022-09-21T23:37:54;18.30;99.90
39453;DHT22;25154;-33.684;151.102;2022-09-21T23:42:57;18.30;99.90
39453;DHT22;25154;-33.684;151.102;2022-09-21T23:47:59;18.20;99.90
39453;DHT22;25154;-33.684;151.102;2022-09-21T23:53:02;17.70;99.90
39453;DHT22;25154;-33.684;151.102;2022-09-21T23:58:06;17.70;99.90
